sensor_id;sensor_type;location;lat;lon;timestamp;P1;durP1;ratioP1;P2;durP2;ratioP2
9400;SDS011;4740;49.592;6.140;2023-03-12T00:01:41;0.08;;;0.03;;
9400;SDS011;4740;49.592;6.140;2023-03-12T00:04:07;0.20;;;0.20;;
9400;SDS011;4740;49.592;6.140;2023-03-12T00:06:32;0.00;;;0.00;;
9400;SDS011;4740;49.592;6.140;2023-03-12T00:08:57;0.30;;;0.30;;
9400;SDS011;4740;49.592;6.140;2023-03-12T00:11:26;0.07;;;0.07;;
9400;SDS011;4740;49.592;6.140;2023-03-12T00:13:52;0.00;;;0.00;;
9400;SDS011;4740;49.592;6.140;2023-03-12T00:16:17;0.00;;;0.00;;
9400;SDS011;4740;49.592;6.140;2023-03-12T00:18:43;0.00;;;0.00;;
9400;SDS011;4740;49.592;6.140;2023-03-12T00:21:08;0.10;;;0.10;;
9400;SDS011;4740;49.592;6.140;2023-03-12T00:23:33;0.30;;;0.23;;
9400;SDS011;4740;49.592;6.140;2023-03-12T00:26:03;0.07;;;0.07;;
9400;SDS011;4740;49.592;6.140;2023-03-12T00:28:29;0.00;;;0.00;;
9400;SDS011;4740;49.592;6.140;2023-03-12T00:30:54;0.40;;;0.40;;
9400;SDS011;4740;49.592;6.140;2023-03-12T00:33:20;0.00;;;0.00;;
9400;SDS011;4740;49.592;6.140;2023-03-12T00:35:45;0.07;;;0.07;;
9400;SDS011;4740;49.592;6.140;2023-03-12T00:38:10;0.73;;;0.73;;
9400;SDS011;4740;49.592;6.140;2023-03-12T00:40:35;0.00;;;0.00;;
9400;SDS011;4740;49.592;6.140;2023-03-12T00:43:00;0.33;;;0.20;;
9400;SDS011;4740;49.592;6.140;2023-03-12T00:45:26;0.00;;;0.00;;
9400;SDS011;4740;49.592;6.140;2023-03-12T00:47:51;0.40;;;0.40;;
9400;SDS011;4740;49.592;6.140;2023-03-12T00:50:16;0.00;;;0.00;;
9400;SDS011;4740;49.592;6.140;2023-03-12T00:52:41;0.00;;;0.00;;
9400;SDS011;4740;49.592;6.140;2023-03-12T00:55:06;0.00;;;0.00;;
9400;SDS011;4740;49.592;6.140;2023-03-12T00:57:32;0.53;;;0.53;;
9400;SDS011;4740;49.592;6.140;2023-03-12T00:59:57;0.22;;;0.22;;
9400;SDS011;4740;49.592;6.140;2023-03-12T01:02:22;0.30;;;0.30;;
9400;SDS011;4740;49.592;6.140;2023-03-12T01:04:47;0.03;;;0.03;;
9400;SDS011;4740;49.592;6.140;2023-03-12T01:07:12;0.50;;;0.50;;
9400;SDS011;4740;49.592;6.140;2023-03-12T01:09:38;0.00;;;0.00;;
9400;SDS011;4740;49.592;6.140;2023-03-12T01:12:03;0.10;;;0.10;;
9400;SDS011;4740;49.592;6.140;2023-03-12T01:14:28;0.33;;;0.33;;
9400;SDS011;4740;49.592;6.140;2023-03-12T01:16:54;0.10;;;0.10;;
9400;SDS011;4740;49.592;6.140;2023-03-12T01:19:19;0.00;;;0.00;;
9400;SDS011;4740;49.592;6.140;2023-03-12T01:21:45;0.33;;;0.33;;
9400;SDS011;4740;49.592;6.140;2023-03-12T01:24:10;0.73;;;0.63;;
9400;SDS011;4740;49.592;6.140;2023-03-12T01:26:35;0.00;;;0.00;;
9400;SDS011;4740;49.592;6.140;2023-03-12T01:29:00;0.00;;;0.00;;
9400;SDS011;4740;49.592;6.140;2023-03-12T01:31:25;0.00;;;0.00;;
9400;SDS011;4740;49.592;6.140;2023-03-12T01:33:51;0.00;;;0.00;;
9400;SDS011;4740;49.592;6.140;2023-03-12T01:36:18;0.00;;;0.00;;
9400;SDS011;4740;49.592;6.140;2023-03-12T01:38:44;2.37;;;0.57;;
9400;SDS011;4740;49.592;6.140;2023-03-12T01:41:09;0.40;;;0.40;;
9400;SDS011;4740;49.592;6.140;2023-03-12T01:43:35;0.60;;;0.60;;
9400;SDS011;4740;49.592;6.140;2023-03-12T01:48:50;0.00;;;0.00;;
9400;SDS011;4740;49.592;6.140;2023-03-12T01:51:17;0.00;;;0.00;;
9400;SDS011;4740;49.592;6.140;2023-03-12T01:53:44;0.10;;;0.10;;
9400;SDS011;4740;49.592;6.140;2023-03-12T01:56:11;0.07;;;0.07;;
9400;SDS011;4740;49.592;6.140;2023-03-12T01:58:38;0.00;;;0.00;;
9400;SDS011;4740;49.592;6.140;2023-03-12T02:01:04;0.17;;;0.17;;
9400;SDS011;4740;49.592;6.140;2023-03-12T02:03:29;0.00;;;0.00;;
9400;SDS011;4740;49.592;6.140;2023-03-12T02:06:02;0.00;;;0.00;;
9400;SDS011;4740;49.592;6.140;2023-03-12T02:08:28;0.00;;;0.00;;
9400;SDS011;4740;49.592;6.140;2023-03-12T02:10:54;0.10;;;0.10;;
9400;SDS011;4740;49.592;6.140;2023-03-12T02:13:19;0.00;;;0.00;;
9400;SDS011;4740;49.592;6.140;2023-03-12T02:15:44;0.00;;;0.00;;
9400;SDS011;4740;49.592;6.140;2023-03-12T02:18:10;0.00;;;0.00;;
9400;SDS011;4740;49.592;6.140;2023-03-12T02:20:58;0.10;;;0.10;;
9400;SDS011;4740;49.592;6.140;2023-03-12T02:23:35;0.00;;;0.00;;
9400;SDS011;4740;49.592;6.140;2023-03-12T02:26:02;0.00;;;0.00;;
9400;SDS011;4740;49.592;6.140;2023-03-12T02:28:28;0.00;;;0.00;;
9400;SDS011;4740;49.592;6.140;2023-03-12T02:30:58;0.40;;;0.40;;
9400;SDS011;4740;49.592;6.140;2023-03-12T02:33:24;0.20;;;0.20;;
9400;SDS011;4740;49.592;6.140;2023-03-12T02:35:50;0.10;;;0.10;;
9400;SDS011;4740;49.592;6.140;2023-03-12T02:40:52;0.00;;;0.00;;
9400;SDS011;4740;49.592;6.140;2023-03-12T02:43:20;0.20;;;0.20;;
9400;SDS011;4740;49.592;6.140;2023-03-12T02:45:45;0.33;;;0.30;;
9400;SDS011;4740;49.592;6.140;2023-03-12T02:48:11;0.00;;;0.00;;
9400;SDS011;4740;49.592;6.140;2023-03-12T02:50:36;4.85;;;0.55;;
9400;SDS011;4740;49.592;6.140;2023-03-12T02:53:01;0.20;;;0.20;;
9400;SDS011;4740;49.592;6.140;2023-03-12T02:55:26;0.00;;;0.00;;
9400;SDS011;4740;49.592;6.140;2023-03-12T02:57:51;0.00;;;0.00;;
9400;SDS011;4740;49.592;6.140;2023-03-12T03:00:17;0.10;;;0.10;;
9400;SDS011;4740;49.592;6.140;2023-03-12T03:02:42;0.10;;;0.10;;
9400;SDS011;4740;49.592;6.140;2023-03-12T03:05:08;0.00;;;0.00;;
9400;SDS011;4740;49.592;6.140;2023-03-12T03:07:33;0.00;;;0.00;;
9400;SDS011;4740;49.592;6.140;2023-03-12T03:09:58;0.00;;;0.00;;
9400;SDS011;4740;49.592;6.140;2023-03-12T03:12:28;0.20;;;0.20;;
9400;SDS011;4740;49.592;6.140;2023-03-12T03:14:54;0.20;;;0.17;;
9400;SDS011;4740;49.592;6.140;2023-03-12T03:17:19;0.03;;;0.03;;
9400;SDS011;4740;49.592;6.140;2023-03-12T03:19:47;0.00;;;0.00;;
9400;SDS011;4740;49.592;6.140;2023-03-12T03:22:12;0.00;;;0.00;;
9400;SDS011;4740;49.592;6.140;2023-03-12T03:24:37;0.17;;;0.17;;
9400;SDS011;4740;49.592;6.140;2023-03-12T03:27:02;0.00;;;0.00;;
9400;SDS011;4740;49.592;6.140;2023-03-12T03:29:27;0.50;;;0.50;;
9400;SDS011;4740;49.592;6.140;2023-03-12T03:31:53;0.80;;;0.80;;
9400;SDS011;4740;49.592;6.140;2023-03-12T03:34:18;0.10;;;0.10;;
9400;SDS011;4740;49.592;6.140;2023-03-12T03:36:43;0.10;;;0.10;;
9400;SDS011;4740;49.592;6.140;2023-03-12T03:39:08;0.50;;;0.50;;
9400;SDS011;4740;49.592;6.140;2023-03-12T03:41:33;0.08;;;0.08;;
9400;SDS011;4740;49.592;6.140;2023-03-12T03:43:58;0.57;;;0.13;;
9400;SDS011;4740;49.592;6.140;2023-03-12T03:46:24;1.75;;;1.65;;
9400;SDS011;4740;49.592;6.140;2023-03-12T03:48:49;0.43;;;0.43;;
9400;SDS011;4740;49.592;6.140;2023-03-12T03:51:15;1.23;;;1.00;;
9400;SDS011;4740;49.592;6.140;2023-03-12T03:53:40;0.40;;;0.40;;
9400;SDS011;4740;49.592;6.140;2023-03-12T03:56:09;1.30;;;0.50;;
9400;SDS011;4740;49.592;6.140;2023-03-12T03:58:34;0.63;;;0.63;;
9400;SDS011;4740;49.592;6.140;2023-03-12T04:00:59;0.57;;;0.57;;
9400;SDS011;4740;49.592;6.140;2023-03-12T04:03:25;0.23;;;0.23;;
9400;SDS011;4740;49.592;6.140;2023-03-12T04:05:54;0.63;;;0.63;;
9400;SDS011;4740;49.592;6.140;2023-03-12T04:08:19;0.87;;;0.30;;
9400;SDS011;4740;49.592;6.140;2023-03-12T04:10:44;0.20;;;0.20;;
9400;SDS011;4740;49.592;6.140;2023-03-12T04:13:09;0.40;;;0.40;;
9400;SDS011;4740;49.592;6.140;2023-03-12T04:15:34;0.30;;;0.30;;
9400;SDS011;4740;49.592;6.140;2023-03-12T04:18:00;0.67;;;0.63;;
9400;SDS011;4740;49.592;6.140;2023-03-12T04:20:25;1.03;;;0.93;;
9400;SDS011;4740;49.592;6.140;2023-03-12T04:22:50;0.07;;;0.07;;
9400;SDS011;4740;49.592;6.140;2023-03-12T04:25:15;0.03;;;0.03;;
9400;SDS011;4740;49.592;6.140;2023-03-12T04:27:40;0.13;;;0.13;;
9400;SDS011;4740;49.592;6.140;2023-03-12T04:30:06;0.68;;;0.68;;
9400;SDS011;4740;49.592;6.140;2023-03-12T04:32:31;0.30;;;0.30;;
9400;SDS011;4740;49.592;6.140;2023-03-12T04:34:56;0.38;;;0.38;;
9400;SDS011;4740;49.592;6.140;2023-03-12T04:37:21;0.10;;;0.10;;
9400;SDS011;4740;49.592;6.140;2023-03-12T04:39:46;0.20;;;0.20;;
9400;SDS011;4740;49.592;6.140;2023-03-12T04:42:11;0.17;;;0.17;;
9400;SDS011;4740;49.592;6.140;2023-03-12T04:44:37;0.03;;;0.03;;
9400;SDS011;4740;49.592;6.140;2023-03-12T04:47:02;0.80;;;0.80;;
9400;SDS011;4740;49.592;6.140;2023-03-12T04:49:28;0.23;;;0.20;;
9400;SDS011;4740;49.592;6.140;2023-03-12T04:51:53;0.37;;;0.37;;
9400;SDS011;4740;49.592;6.140;2023-03-12T04:54:18;0.93;;;0.87;;
9400;SDS011;4740;49.592;6.140;2023-03-12T04:56:45;1.10;;;1.10;;
9400;SDS011;4740;49.592;6.140;2023-03-12T04:59:10;0.37;;;0.37;;
9400;SDS011;4740;49.592;6.140;2023-03-12T05:01:35;0.30;;;0.30;;
9400;SDS011;4740;49.592;6.140;2023-03-12T05:04:01;0.30;;;0.30;;
9400;SDS011;4740;49.592;6.140;2023-03-12T05:06:26;2.10;;;1.87;;
9400;SDS011;4740;49.592;6.140;2023-03-12T05:08:52;0.40;;;0.40;;
9400;SDS011;4740;49.592;6.140;2023-03-12T05:11:17;0.33;;;0.10;;
9400;SDS011;4740;49.592;6.140;2023-03-12T05:13:42;0.43;;;0.43;;
9400;SDS011;4740;49.592;6.140;2023-03-12T05:16:08;0.20;;;0.20;;
9400;SDS011;4740;49.592;6.140;2023-03-12T05:18:34;0.47;;;0.47;;
9400;SDS011;4740;49.592;6.140;2023-03-12T05:21:00;0.30;;;0.30;;
9400;SDS011;4740;49.592;6.140;2023-03-12T05:23:25;0.00;;;0.00;;
9400;SDS011;4740;49.592;6.140;2023-03-12T05:25:50;0.00;;;0.00;;
9400;SDS011;4740;49.592;6.140;2023-03-12T05:28:15;0.60;;;0.60;;
9400;SDS011;4740;49.592;6.140;2023-03-12T05:30:40;1.37;;;0.83;;
9400;SDS011;4740;49.592;6.140;2023-03-12T05:33:05;0.20;;;0.20;;
9400;SDS011;4740;49.592;6.140;2023-03-12T05:35:31;1.27;;;1.17;;
9400;SDS011;4740;49.592;6.140;2023-03-12T05:37:56;0.30;;;0.30;;
9400;SDS011;4740;49.592;6.140;2023-03-12T05:40:21;0.00;;;0.00;;
9400;SDS011;4740;49.592;6.140;2023-03-12T05:42:46;0.50;;;0.50;;
9400;SDS011;4740;49.592;6.140;2023-03-12T05:45:12;0.00;;;0.00;;
9400;SDS011;4740;49.592;6.140;2023-03-12T05:47:37;0.13;;;0.13;;
9400;SDS011;4740;49.592;6.140;2023-03-12T05:50:04;0.13;;;0.13;;
9400;SDS011;4740;49.592;6.140;2023-03-12T05:52:29;0.00;;;0.00;;
9400;SDS011;4740;49.592;6.140;2023-03-12T05:54:54;0.20;;;0.20;;
9400;SDS011;4740;49.592;6.140;2023-03-12T05:57:20;0.50;;;0.50;;
9400;SDS011;4740;49.592;6.140;2023-03-12T05:59:45;0.50;;;0.50;;
9400;SDS011;4740;49.592;6.140;2023-03-12T06:02:11;0.43;;;0.43;;
9400;SDS011;4740;49.592;6.140;2023-03-12T06:04:38;0.67;;;0.33;;
9400;SDS011;4740;49.592;6.140;2023-03-12T06:07:03;0.20;;;0.20;;
9400;SDS011;4740;49.592;6.140;2023-03-12T06:09:28;0.00;;;0.00;;
9400;SDS011;4740;49.592;6.140;2023-03-12T06:11:53;0.40;;;0.40;;
9400;SDS011;4740;49.592;6.140;2023-03-12T06:14:18;0.60;;;0.60;;
9400;SDS011;4740;49.592;6.140;2023-03-12T06:16:44;0.77;;;0.77;;
9400;SDS011;4740;49.592;6.140;2023-03-12T06:19:10;1.45;;;0.75;;
9400;SDS011;4740;49.592;6.140;2023-03-12T06:21:37;0.57;;;0.57;;
9400;SDS011;4740;49.592;6.140;2023-03-12T06:24:03;0.00;;;0.00;;
9400;SDS011;4740;49.592;6.140;2023-03-12T06:26:28;0.87;;;0.33;;
9400;SDS011;4740;49.592;6.140;2023-03-12T06:28:53;0.50;;;0.50;;
9400;SDS011;4740;49.592;6.140;2023-03-12T06:31:19;1.10;;;0.77;;
9400;SDS011;4740;49.592;6.140;2023-03-12T06:33:44;1.50;;;1.40;;
9400;SDS011;4740;49.592;6.140;2023-03-12T06:36:10;0.37;;;0.37;;
9400;SDS011;4740;49.592;6.140;2023-03-12T06:38:35;0.97;;;0.73;;
9400;SDS011;4740;49.592;6.140;2023-03-12T06:41:02;0.20;;;0.20;;
9400;SDS011;4740;49.592;6.140;2023-03-12T06:43:28;0.27;;;0.27;;
9400;SDS011;4740;49.592;6.140;2023-03-12T06:45:54;0.10;;;0.10;;
9400;SDS011;4740;49.592;6.140;2023-03-12T06:48:21;0.73;;;0.73;;
9400;SDS011;4740;49.592;6.140;2023-03-12T06:50:46;0.20;;;0.20;;
9400;SDS011;4740;49.592;6.140;2023-03-12T06:53:11;0.87;;;0.73;;
9400;SDS011;4740;49.592;6.140;2023-03-12T06:55:36;0.30;;;0.30;;
9400;SDS011;4740;49.592;6.140;2023-03-12T06:58:01;0.53;;;0.53;;
9400;SDS011;4740;49.592;6.140;2023-03-12T07:00:27;0.20;;;0.20;;
9400;SDS011;4740;49.592;6.140;2023-03-12T07:02:53;0.73;;;0.73;;
9400;SDS011;4740;49.592;6.140;2023-03-12T07:05:18;1.27;;;1.27;;
9400;SDS011;4740;49.592;6.140;2023-03-12T07:07:43;0.00;;;0.00;;
9400;SDS011;4740;49.592;6.140;2023-03-12T07:10:10;0.37;;;0.37;;
9400;SDS011;4740;49.592;6.140;2023-03-12T07:12:35;0.77;;;0.73;;
9400;SDS011;4740;49.592;6.140;2023-03-12T07:15:00;1.13;;;1.13;;
9400;SDS011;4740;49.592;6.140;2023-03-12T07:17:25;0.20;;;0.20;;
9400;SDS011;4740;49.592;6.140;2023-03-12T07:19:51;0.13;;;0.13;;
9400;SDS011;4740;49.592;6.140;2023-03-12T07:22:16;0.00;;;0.00;;
9400;SDS011;4740;49.592;6.140;2023-03-12T07:24:41;0.10;;;0.10;;
9400;SDS011;4740;49.592;6.140;2023-03-12T07:27:06;0.43;;;0.43;;
9400;SDS011;4740;49.592;6.140;2023-03-12T07:29:32;0.77;;;0.43;;
9400;SDS011;4740;49.592;6.140;2023-03-12T07:31:57;0.00;;;0.00;;
9400;SDS011;4740;49.592;6.140;2023-03-12T07:34:22;0.17;;;0.17;;
9400;SDS011;4740;49.592;6.140;2023-03-12T07:36:47;0.37;;;0.37;;
9400;SDS011;4740;49.592;6.140;2023-03-12T07:39:12;0.00;;;0.00;;
9400;SDS011;4740;49.592;6.140;2023-03-12T07:41:37;0.10;;;0.10;;
9400;SDS011;4740;49.592;6.140;2023-03-12T07:44:03;0.00;;;0.00;;
9400;SDS011;4740;49.592;6.140;2023-03-12T07:46:28;0.10;;;0.10;;
9400;SDS011;4740;49.592;6.140;2023-03-12T07:48:54;1.33;;;0.40;;
9400;SDS011;4740;49.592;6.140;2023-03-12T07:51:19;0.20;;;0.20;;
9400;SDS011;4740;49.592;6.140;2023-03-12T07:53:44;0.75;;;0.75;;
9400;SDS011;4740;49.592;6.140;2023-03-12T07:56:09;0.45;;;0.43;;
9400;SDS011;4740;49.592;6.140;2023-03-12T07:58:35;0.67;;;0.67;;
9400;SDS011;4740;49.592;6.140;2023-03-12T08:01:00;1.73;;;0.40;;
9400;SDS011;4740;49.592;6.140;2023-03-12T08:03:25;0.10;;;0.10;;
9400;SDS011;4740;49.592;6.140;2023-03-12T08:05:57;0.00;;;0.00;;
9400;SDS011;4740;49.592;6.140;2023-03-12T08:08:23;0.53;;;0.53;;
9400;SDS011;4740;49.592;6.140;2023-03-12T08:10:48;0.00;;;0.00;;
9400;SDS011;4740;49.592;6.140;2023-03-12T08:13:14;0.00;;;0.00;;
9400;SDS011;4740;49.592;6.140;2023-03-12T08:15:39;0.45;;;0.45;;
9400;SDS011;4740;49.592;6.140;2023-03-12T08:18:04;1.13;;;1.10;;
9400;SDS011;4740;49.592;6.140;2023-03-12T08:20:29;0.00;;;0.00;;
9400;SDS011;4740;49.592;6.140;2023-03-12T08:22:54;0.13;;;0.13;;
9400;SDS011;4740;49.592;6.140;2023-03-12T08:25:19;0.00;;;0.00;;
9400;SDS011;4740;49.592;6.140;2023-03-12T08:27:45;0.07;;;0.07;;
9400;SDS011;4740;49.592;6.140;2023-03-12T08:30:10;0.10;;;0.10;;
9400;SDS011;4740;49.592;6.140;2023-03-12T08:32:36;0.57;;;0.57;;
9400;SDS011;4740;49.592;6.140;2023-03-12T08:35:01;0.63;;;0.63;;
9400;SDS011;4740;49.592;6.140;2023-03-12T08:37:29;0.00;;;0.00;;
9400;SDS011;4740;49.592;6.140;2023-03-12T08:39:54;0.53;;;0.53;;
9400;SDS011;4740;49.592;6.140;2023-03-12T08:42:19;0.53;;;0.53;;
9400;SDS011;4740;49.592;6.140;2023-03-12T08:44:44;10.50;;;1.60;;
9400;SDS011;4740;49.592;6.140;2023-03-12T08:47:09;0.87;;;0.87;;
9400;SDS011;4740;49.592;6.140;2023-03-12T08:49:35;0.77;;;0.73;;
9400;SDS011;4740;49.592;6.140;2023-03-12T08:52:00;0.28;;;0.28;;
9400;SDS011;4740;49.592;6.140;2023-03-12T08:54:25;3.90;;;0.53;;
9400;SDS011;4740;49.592;6.140;2023-03-12T08:56:51;0.37;;;0.37;;
9400;SDS011;4740;49.592;6.140;2023-03-12T08:59:16;0.00;;;0.00;;
9400;SDS011;4740;49.592;6.140;2023-03-12T09:01:41;0.00;;;0.00;;
9400;SDS011;4740;49.592;6.140;2023-03-12T09:04:06;0.37;;;0.37;;
9400;SDS011;4740;49.592;6.140;2023-03-12T09:06:32;0.10;;;0.10;;
9400;SDS011;4740;49.592;6.140;2023-03-12T09:08:59;0.10;;;0.10;;
9400;SDS011;4740;49.592;6.140;2023-03-12T09:11:29;0.00;;;0.00;;
9400;SDS011;4740;49.592;6.140;2023-03-12T09:13:54;0.10;;;0.10;;
9400;SDS011;4740;49.592;6.140;2023-03-12T09:16:19;0.10;;;0.10;;
9400;SDS011;4740;49.592;6.140;2023-03-12T09:18:44;0.00;;;0.00;;
9400;SDS011;4740;49.592;6.140;2023-03-12T09:21:09;0.53;;;0.20;;
9400;SDS011;4740;49.592;6.140;2023-03-12T09:23:34;4.43;;;2.67;;
9400;SDS011;4740;49.592;6.140;2023-03-12T09:26:00;7.23;;;5.20;;
9400;SDS011;4740;49.592;6.140;2023-03-12T09:28:25;3.23;;;2.47;;
9400;SDS011;4740;49.592;6.140;2023-03-12T09:30:50;0.43;;;0.33;;
9400;SDS011;4740;49.592;6.140;2023-03-12T09:33:16;4.10;;;2.43;;
9400;SDS011;4740;49.592;6.140;2023-03-12T09:35:42;0.30;;;0.30;;
9400;SDS011;4740;49.592;6.140;2023-03-12T09:38:10;3.73;;;2.13;;
9400;SDS011;4740;49.592;6.140;2023-03-12T09:40:36;8.70;;;3.27;;
9400;SDS011;4740;49.592;6.140;2023-03-12T09:43:05;8.90;;;4.70;;
9400;SDS011;4740;49.592;6.140;2023-03-12T09:45:34;9.93;;;4.43;;
9400;SDS011;4740;49.592;6.140;2023-03-12T09:48:00;7.97;;;2.83;;
9400;SDS011;4740;49.592;6.140;2023-03-12T09:50:30;3.13;;;1.90;;
9400;SDS011;4740;49.592;6.140;2023-03-12T09:52:58;8.33;;;3.13;;
9400;SDS011;4740;49.592;6.140;2023-03-12T09:55:25;6.63;;;1.97;;
9400;SDS011;4740;49.592;6.140;2023-03-12T09:57:51;4.67;;;1.60;;
9400;SDS011;4740;49.592;6.140;2023-03-12T10:00:19;8.23;;;4.80;;
9400;SDS011;4740;49.592;6.140;2023-03-12T10:07:46;16.33;;;4.00;;
9400;SDS011;4740;49.592;6.140;2023-03-12T10:13:06;3.17;;;1.60;;
9400;SDS011;4740;49.592;6.140;2023-03-12T10:18:14;3.33;;;1.57;;
9400;SDS011;4740;49.592;6.140;2023-03-12T10:23:24;0.73;;;0.63;;
9400;SDS011;4740;49.592;6.140;2023-03-12T10:25:59;8.43;;;2.43;;
9400;SDS011;4740;49.592;6.140;2023-03-12T10:28:42;0.40;;;0.20;;
9400;SDS011;4740;49.592;6.140;2023-03-12T10:31:16;6.80;;;2.93;;
9400;SDS011;4740;49.592;6.140;2023-03-12T10:33:49;6.37;;;2.80;;
9400;SDS011;4740;49.592;6.140;2023-03-12T10:36:17;7.33;;;2.10;;
9400;SDS011;4740;49.592;6.140;2023-03-12T10:38:43;6.17;;;2.20;;
9400;SDS011;4740;49.592;6.140;2023-03-12T10:41:12;5.00;;;1.77;;
9400;SDS011;4740;49.592;6.140;2023-03-12T10:43:38;14.67;;;2.43;;
9400;SDS011;4740;49.592;6.140;2023-03-12T10:46:50;4.53;;;1.90;;
9400;SDS011;4740;49.592;6.140;2023-03-12T10:48:48;2.77;;;1.20;;
9400;SDS011;4740;49.592;6.140;2023-03-12T10:51:13;3.65;;;1.90;;
9400;SDS011;4740;49.592;6.140;2023-03-12T10:53:42;9.07;;;2.03;;
9400;SDS011;4740;49.592;6.140;2023-03-12T10:56:15;4.53;;;1.53;;
9400;SDS011;4740;49.592;6.140;2023-03-12T10:58:41;13.07;;;3.73;;
9400;SDS011;4740;49.592;6.140;2023-03-12T11:01:23;4.77;;;2.07;;
9400;SDS011;4740;49.592;6.140;2023-03-12T11:03:49;4.57;;;1.00;;
9400;SDS011;4740;49.592;6.140;2023-03-12T11:06:48;1.47;;;0.60;;
9400;SDS011;4740;49.592;6.140;2023-03-12T11:09:16;6.50;;;1.87;;
9400;SDS011;4740;49.592;6.140;2023-03-12T11:11:42;6.13;;;1.63;;
9400;SDS011;4740;49.592;6.140;2023-03-12T11:14:22;5.90;;;1.97;;
9400;SDS011;4740;49.592;6.140;2023-03-12T11:16:48;2.03;;;1.00;;
9400;SDS011;4740;49.592;6.140;2023-03-12T11:19:24;9.70;;;2.93;;
9400;SDS011;4740;49.592;6.140;2023-03-12T11:22:08;7.73;;;1.83;;
9400;SDS011;4740;49.592;6.140;2023-03-12T11:24:35;6.10;;;2.20;;
9400;SDS011;4740;49.592;6.140;2023-03-12T11:27:02;4.67;;;1.97;;
9400;SDS011;4740;49.592;6.140;2023-03-12T11:29:37;8.17;;;2.27;;
9400;SDS011;4740;49.592;6.140;2023-03-12T11:34:37;2.37;;;0.73;;
9400;SDS011;4740;49.592;6.140;2023-03-12T11:37:05;2.50;;;1.13;;
9400;SDS011;4740;49.592;6.140;2023-03-12T11:39:47;3.00;;;1.33;;
9400;SDS011;4740;49.592;6.140;2023-03-12T11:49:38;6.80;;;2.05;;
9400;SDS011;4740;49.592;6.140;2023-03-12T11:55:06;5.90;;;1.80;;
9400;SDS011;4740;49.592;6.140;2023-03-12T12:00:15;11.43;;;2.13;;
9400;SDS011;4740;49.592;6.140;2023-03-12T12:05:26;3.40;;;1.63;;
9400;SDS011;4740;49.592;6.140;2023-03-12T12:08:00;0.40;;;0.40;;
9400;SDS011;4740;49.592;6.140;2023-03-12T12:15:42;1.13;;;1.03;;
9400;SDS011;4740;49.592;6.140;2023-03-12T12:20:46;3.23;;;1.43;;
9400;SDS011;4740;49.592;6.140;2023-03-12T12:25:59;0.93;;;0.93;;
9400;SDS011;4740;49.592;6.140;2023-03-12T12:31:08;1.07;;;0.87;;
9400;SDS011;4740;49.592;6.140;2023-03-12T12:33:42;2.17;;;1.43;;
9400;SDS011;4740;49.592;6.140;2023-03-12T12:36:12;1.47;;;0.93;;
9400;SDS011;4740;49.592;6.140;2023-03-12T12:41:07;0.63;;;0.63;;
9400;SDS011;4740;49.592;6.140;2023-03-12T12:43:36;10.80;;;2.13;;
9400;SDS011;4740;49.592;6.140;2023-03-12T12:46:05;0.37;;;0.37;;
9400;SDS011;4740;49.592;6.140;2023-03-12T12:48:34;1.17;;;1.07;;
9400;SDS011;4740;49.592;6.140;2023-03-12T12:51:00;1.97;;;1.73;;
9400;SDS011;4740;49.592;6.140;2023-03-12T12:56:12;6.13;;;1.13;;
9400;SDS011;4740;49.592;6.140;2023-03-12T12:58:43;7.43;;;1.73;;
9400;SDS011;4740;49.592;6.140;2023-03-12T13:01:10;6.63;;;1.73;;
9400;SDS011;4740;49.592;6.140;2023-03-12T13:03:35;3.07;;;0.87;;
9400;SDS011;4740;49.592;6.140;2023-03-12T13:06:02;4.80;;;1.63;;
9400;SDS011;4740;49.592;6.140;2023-03-12T13:10:55;0.67;;;0.67;;
9400;SDS011;4740;49.592;6.140;2023-03-12T13:13:21;1.53;;;0.57;;
9400;SDS011;4740;49.592;6.140;2023-03-12T13:15:47;1.73;;;0.93;;
9400;SDS011;4740;49.592;6.140;2023-03-12T13:18:17;5.10;;;1.70;;
9400;SDS011;4740;49.592;6.140;2023-03-12T13:20:46;1.10;;;0.33;;
9400;SDS011;4740;49.592;6.140;2023-03-12T13:25:50;7.53;;;2.27;;
9400;SDS011;4740;49.592;6.140;2023-03-12T13:28:36;6.97;;;1.73;;
9400;SDS011;4740;49.592;6.140;2023-03-12T13:33:42;4.33;;;1.63;;
9400;SDS011;4740;49.592;6.140;2023-03-12T13:41:39;2.27;;;1.17;;
9400;SDS011;4740;49.592;6.140;2023-03-12T13:46:46;1.87;;;1.43;;
9400;SDS011;4740;49.592;6.140;2023-03-12T13:49:12;0.13;;;0.13;;
9400;SDS011;4740;49.592;6.140;2023-03-12T13:51:45;6.83;;;1.43;;
9400;SDS011;4740;49.592;6.140;2023-03-12T13:54:16;2.63;;;1.30;;
9400;SDS011;4740;49.592;6.140;2023-03-12T13:56:44;2.10;;;0.87;;
9400;SDS011;4740;49.592;6.140;2023-03-12T13:59:14;6.87;;;2.33;;
9400;SDS011;4740;49.592;6.140;2023-03-12T14:01:40;1.83;;;1.20;;
9400;SDS011;4740;49.592;6.140;2023-03-12T14:04:09;4.07;;;1.37;;
9400;SDS011;4740;49.592;6.140;2023-03-12T14:06:55;18.23;;;4.90;;
9400;SDS011;4740;49.592;6.140;2023-03-12T14:17:24;3.70;;;1.80;;
9400;SDS011;4740;49.592;6.140;2023-03-12T14:19:55;5.73;;;1.03;;
9400;SDS011;4740;49.592;6.140;2023-03-12T14:22:21;3.47;;;0.93;;
9400;SDS011;4740;49.592;6.140;2023-03-12T14:24:57;1.60;;;0.30;;
9400;SDS011;4740;49.592;6.140;2023-03-12T14:27:28;3.63;;;0.70;;
9400;SDS011;4740;49.592;6.140;2023-03-12T14:30:05;5.10;;;1.87;;
9400;SDS011;4740;49.592;6.140;2023-03-12T14:32:31;2.37;;;1.37;;
9400;SDS011;4740;49.592;6.140;2023-03-12T14:34:58;2.50;;;1.30;;
9400;SDS011;4740;49.592;6.140;2023-03-12T14:37:29;0.70;;;0.43;;
9400;SDS011;4740;49.592;6.140;2023-03-12T14:40:03;3.70;;;0.70;;
9400;SDS011;4740;49.592;6.140;2023-03-12T14:42:32;0.60;;;0.60;;
9400;SDS011;4740;49.592;6.140;2023-03-12T14:44:59;2.63;;;1.70;;
9400;SDS011;4740;49.592;6.140;2023-03-12T14:47:25;5.47;;;1.17;;
9400;SDS011;4740;49.592;6.140;2023-03-12T14:49:50;7.40;;;1.87;;
9400;SDS011;4740;49.592;6.140;2023-03-12T14:52:23;4.80;;;1.63;;
9400;SDS011;4740;49.592;6.140;2023-03-12T14:54:56;2.03;;;0.67;;
9400;SDS011;4740;49.592;6.140;2023-03-12T14:57:21;4.80;;;1.73;;
9400;SDS011;4740;49.592;6.140;2023-03-12T14:59:56;4.70;;;2.73;;
9400;SDS011;4740;49.592;6.140;2023-03-12T15:02:21;5.40;;;1.17;;
9400;SDS011;4740;49.592;6.140;2023-03-12T15:04:47;2.17;;;0.83;;
9400;SDS011;4740;49.592;6.140;2023-03-12T15:07:14;1.77;;;0.50;;
9400;SDS011;4740;49.592;6.140;2023-03-12T15:09:43;1.17;;;0.97;;
9400;SDS011;4740;49.592;6.140;2023-03-12T15:12:18;1.07;;;0.80;;
9400;SDS011;4740;49.592;6.140;2023-03-12T15:14:44;5.00;;;1.37;;
9400;SDS011;4740;49.592;6.140;2023-03-12T15:17:14;9.73;;;0.87;;
9400;SDS011;4740;49.592;6.140;2023-03-12T15:19:40;3.30;;;1.17;;
9400;SDS011;4740;49.592;6.140;2023-03-12T15:22:06;7.40;;;1.57;;
9400;SDS011;4740;49.592;6.140;2023-03-12T15:24:36;2.00;;;1.03;;
9400;SDS011;4740;49.592;6.140;2023-03-12T15:30:19;1.13;;;0.63;;
9400;SDS011;4740;49.592;6.140;2023-03-12T15:33:04;6.93;;;2.60;;
9400;SDS011;4740;49.592;6.140;2023-03-12T15:35:30;3.70;;;1.60;;
9400;SDS011;4740;49.592;6.140;2023-03-12T15:37:55;2.37;;;1.07;;
9400;SDS011;4740;49.592;6.140;2023-03-12T15:40:27;1.40;;;0.77;;
9400;SDS011;4740;49.592;6.140;2023-03-12T15:42:53;1.03;;;0.80;;
9400;SDS011;4740;49.592;6.140;2023-03-12T15:45:22;1.30;;;0.20;;
9400;SDS011;4740;49.592;6.140;2023-03-12T15:47:48;3.13;;;1.70;;
9400;SDS011;4740;49.592;6.140;2023-03-12T15:50:18;3.50;;;0.67;;
9400;SDS011;4740;49.592;6.140;2023-03-12T15:52:57;0.00;;;0.00;;
9400;SDS011;4740;49.592;6.140;2023-03-12T15:55:23;4.40;;;1.17;;
9400;SDS011;4740;49.592;6.140;2023-03-12T15:57:49;5.20;;;1.60;;
9400;SDS011;4740;49.592;6.140;2023-03-12T16:03:00;2.80;;;0.83;;
9400;SDS011;4740;49.592;6.140;2023-03-12T16:05:29;2.10;;;1.03;;
9400;SDS011;4740;49.592;6.140;2023-03-12T16:07:55;4.37;;;1.63;;
9400;SDS011;4740;49.592;6.140;2023-03-12T16:10:21;2.17;;;1.77;;
9400;SDS011;4740;49.592;6.140;2023-03-12T16:12:46;0.00;;;0.00;;
9400;SDS011;4740;49.592;6.140;2023-03-12T16:15:14;4.40;;;1.70;;
9400;SDS011;4740;49.592;6.140;2023-03-12T16:17:39;5.47;;;3.10;;
9400;SDS011;4740;49.592;6.140;2023-03-12T16:20:05;8.13;;;1.20;;
9400;SDS011;4740;49.592;6.140;2023-03-12T16:22:30;6.00;;;1.13;;
9400;SDS011;4740;49.592;6.140;2023-03-12T16:24:55;0.20;;;0.20;;
9400;SDS011;4740;49.592;6.140;2023-03-12T16:27:20;7.47;;;2.20;;
9400;SDS011;4740;49.592;6.140;2023-03-12T16:29:46;0.60;;;0.60;;
9400;SDS011;4740;49.592;6.140;2023-03-12T16:32:12;2.13;;;0.97;;
9400;SDS011;4740;49.592;6.140;2023-03-12T16:34:37;1.00;;;0.63;;
9400;SDS011;4740;49.592;6.140;2023-03-12T16:37:03;3.03;;;1.53;;
9400;SDS011;4740;49.592;6.140;2023-03-12T16:39:28;0.20;;;0.20;;